createdAt,value
2022-08-07T18:26:05.405Z,97832.22
2022-08-07T18:28:57.680Z,97831.78
2022-08-07T18:31:59.415Z,97846.88
2022-08-07T18:35:00.818Z,97839.88
2022-08-07T18:38:57.999Z,97851.94
2022-08-07T18:41:56.890Z,97858.38
2022-08-07T18:45:43.303Z,97860.22
2022-08-07T18:47:44.976Z,97856.75
2022-08-07T18:50:39.456Z,97869.25
2022-08-07T18:53:36.827Z,97872.31
2022-08-07T18:56:34.976Z,97882.28
2022-08-07T18:59:46.964Z,97876.78
2022-08-07T19:02:44.685Z,97887.88
2022-08-07T19:06:03.168Z,97878.41
2022-08-07T19:08:29.209Z,97899.03
2022-08-07T19:11:35.031Z,97886.63
2022-08-07T19:14:20.330Z,97900.13
2022-08-07T19:17:06.388Z,97896.63
2022-08-07T19:19:37.700Z,97922.44
2022-08-07T19:22:11.185Z,97926.00
2022-08-07T19:24:46.153Z,97924.28
2022-08-07T19:28:30.838Z,97925.25
2022-08-07T19:31:02.940Z,97927.91
2022-08-07T19:33:10.080Z,97912.81
2022-08-07T19:35:40.849Z,97922.72
2022-08-07T19:38:16.793Z,97920.97
2022-08-07T19:40:49.637Z,97921.88
2022-08-07T19:43:48.775Z,97939.66
2022-08-07T19:46:10.684Z,97921.13
2022-08-07T19:48:43.691Z,97943.25
2022-08-07T19:51:20.226Z,97934.56
2022-08-07T19:54:34.647Z,97923.09
2022-08-07T19:58:01.868Z,97932.97
2022-08-07T19:59:45.860Z,97932.00
2022-08-07T20:02:19.471Z,97940.84
2022-08-07T20:04:51.883Z,97910.81
2022-08-07T20:07:47.586Z,97926.84
2022-08-07T20:10:37.683Z,97951.81
2022-08-07T20:13:22.691Z,97920.66
2022-08-07T20:15:53.860Z,97934.88
2022-08-07T20:18:32.586Z,97938.47
2022-08-07T20:21:02.267Z,97933.19
2022-08-07T20:23:42.934Z,97927.06
2022-08-07T20:26:29.573Z,97936.00
2022-08-07T20:29:01.600Z,97930.66
2022-08-07T20:31:44.423Z,97951.19
2022-08-07T20:34:15.047Z,97928.06
2022-08-07T20:36:44.257Z,97930.78
2022-08-07T20:40:01.091Z,97944.94
2022-08-07T20:42:14.414Z,97960.09
2022-08-07T20:44:49.593Z,97945.03
2022-08-07T20:47:25.008Z,97937.03
2022-08-07T20:49:57.841Z,97939.75
